createdAt,value
2022-08-23T00:00:28.950Z,2.78
2022-08-23T00:06:04.183Z,2.95
2022-08-23T00:08:52.967Z,3.17
2022-08-23T00:11:51.878Z,3.40
2022-08-23T00:14:41.770Z,3.30
2022-08-23T00:17:34.668Z,3.58
2022-08-23T00:20:21.867Z,3.50
2022-08-23T00:23:08.809Z,4.45
2022-08-23T00:25:55.576Z,3.80
2022-08-23T00:28:42.310Z,3.80
2022-08-23T00:31:29.062Z,4.25
2022-08-23T00:34:16.168Z,3.70
2022-08-23T00:37:04.162Z,4.15
2022-08-23T00:39:51.480Z,3.95
2022-08-23T00:43:17.767Z,3.53
2022-08-23T00:46:41.485Z,3.95
2022-08-23T00:49:29.945Z,3.70
2022-08-23T00:52:37.287Z,3.35
2022-08-23T00:55:24.769Z,3.78
2022-08-23T00:58:13.783Z,3.25
2022-08-23T01:01:02.576Z,3.33
2022-08-23T01:04:04.148Z,3.40
2022-08-23T01:07:02.409Z,4.55
2022-08-23T01:09:51.330Z,3.60
2022-08-23T01:12:44.653Z,3.30
2022-08-23T01:15:35.382Z,3.47
2022-08-23T01:18:26.194Z,3.75
2022-08-23T01:21:23.479Z,3.70
2022-08-23T01:24:10.955Z,3.25
2022-08-23T01:27:06.695Z,2.72
2022-08-23T01:29:53.494Z,3.05
2022-08-23T01:32:50.296Z,2.95
2022-08-23T01:35:53.479Z,2.92
2022-08-23T01:38:40.386Z,4.03
2022-08-23T01:41:27.160Z,2.90
2022-08-23T01:44:14.143Z,3.92
2022-08-23T01:47:01.148Z,3.05
2022-08-23T01:49:47.993Z,3.25
2022-08-23T01:52:36.637Z,3.78
2022-08-23T01:55:23.608Z,3.50
2022-08-23T01:58:10.703Z,3.60
2022-08-23T02:00:57.840Z,3.38
2022-08-23T02:03:45.914Z,3.70
2022-08-23T02:06:36.408Z,3.70
2022-08-23T02:09:25.540Z,3.17
2022-08-23T02:12:12.569Z,3.03
2022-08-23T02:14:59.331Z,2.70
2022-08-23T02:17:46.588Z,2.92
2022-08-23T02:20:33.372Z,2.95
2022-08-23T02:23:21.774Z,2.63
2022-08-23T02:26:08.543Z,2.70
2022-08-23T02:28:56.396Z,3.13
2022-08-23T02:31:44.334Z,3.10
2022-08-23T02:34:32.126Z,2.97
2022-08-23T02:40:06.797Z,4.18
2022-08-23T02:42:53.992Z,3.90
2022-08-23T02:45:41.931Z,3.92
2022-08-23T02:48:28.753Z,3.60
2022-08-23T02:51:16.619Z,3.60
2022-08-23T02:54:03.711Z,3.47
2022-08-23T02:56:52.622Z,3.40
2022-08-23T02:59:42.372Z,3.45
2022-08-23T03:02:29.392Z,3.40
2022-08-23T03:05:16.747Z,3.20
2022-08-23T03:08:04.095Z,3.20
2022-08-23T03:10:52.702Z,3.45
2022-08-23T03:13:40.660Z,3.50
2022-08-23T03:19:14.268Z,3.80
2022-08-23T03:22:01.530Z,3.50
2022-08-23T03:24:49.609Z,3.35
2022-08-23T03:27:38.363Z,3.53
2022-08-23T03:30:33.739Z,3.20
2022-08-23T03:33:20.774Z,3.40
2022-08-23T03:36:10.391Z,3.33
2022-08-23T03:38:57.826Z,3.58
2022-08-23T03:41:44.587Z,3.13
2022-08-23T03:44:31.375Z,3.38
2022-08-23T03:47:18.338Z,3.15
2022-08-23T03:50:05.962Z,3.27
2022-08-23T03:52:52.778Z,3.20
2022-08-23T03:55:42.431Z,2.92
2022-08-23T03:58:29.643Z,3.38
2022-08-23T04:01:16.759Z,3.88
2022-08-23T04:04:04.032Z,3.20
2022-08-23T04:06:50.822Z,3.40
2022-08-23T04:09:37.570Z,3.00
2022-08-23T04:12:24.525Z,3.35
2022-08-23T04:15:13.474Z,3.07
2022-08-23T04:18:00.478Z,3.10
2022-08-23T04:20:48.112Z,3.22
2022-08-23T04:23:34.868Z,3.28
2022-08-23T04:26:21.636Z,3.10
2022-08-23T04:29:08.839Z,3.67
2022-08-23T04:31:57.240Z,3.33
2022-08-23T04:34:45.633Z,3.50
2022-08-23T04:37:38.105Z,3.85
2022-08-23T04:40:43.300Z,3.33
2022-08-23T04:43:30.114Z,3.58
2022-08-23T04:46:17.114Z,3.40
2022-08-23T04:49:04.120Z,2.90
2022-08-23T04:51:53.888Z,3.00
2022-08-23T04:54:40.935Z,2.75
2022-08-23T04:57:27.791Z,2.60
2022-08-23T05:00:16.601Z,3.00
2022-08-23T05:03:03.487Z,2.90
2022-08-23T05:05:51.883Z,2.60
2022-08-23T05:08:38.865Z,2.40
2022-08-23T05:11:25.662Z,2.43
2022-08-23T05:14:12.416Z,2.78
2022-08-23T05:16:59.144Z,2.72
2022-08-23T05:19:47.268Z,2.85
2022-08-23T05:22:36.013Z,3.17
2022-08-23T05:25:23.135Z,2.72
2022-08-23T05:28:09.938Z,3.78
2022-08-23T05:31:02.183Z,3.40
2022-08-23T05:33:49.739Z,3.55
2022-08-23T05:36:37.738Z,3.45
2022-08-23T05:39:36.937Z,3.40
2022-08-23T05:42:24.606Z,4.20
2022-08-23T05:45:11.328Z,3.97
2022-08-23T05:47:59.048Z,3.63
2022-08-23T05:50:46.124Z,4.35
2022-08-23T05:53:32.855Z,3.70
2022-08-23T05:56:19.684Z,3.80
2022-08-23T05:59:12.441Z,3.75
2022-08-23T06:01:59.567Z,3.40
2022-08-23T06:04:46.363Z,3.28
2022-08-23T06:07:37.196Z,3.13
2022-08-23T06:10:24.111Z,3.05
2022-08-23T06:13:10.839Z,2.97
2022-08-23T06:15:58.715Z,2.90
2022-08-23T06:21:33.813Z,2.80
2022-08-23T06:24:20.938Z,3.30
2022-08-23T06:27:07.707Z,3.80
2022-08-23T06:29:54.445Z,3.67
2022-08-23T06:32:41.227Z,5.00
2022-08-23T06:35:38.823Z,4.95
2022-08-23T06:38:26.731Z,5.60
2022-08-23T06:41:13.567Z,5.90
2022-08-23T06:44:00.522Z,6.40
2022-08-23T06:46:48.758Z,5.97
2022-08-23T06:49:36.091Z,5.10
2022-08-23T06:52:22.902Z,5.07
2022-08-23T06:55:13.758Z,4.70
2022-08-23T06:58:01.407Z,5.25
2022-08-23T07:00:48.411Z,5.18
2022-08-23T07:03:36.532Z,4.53
2022-08-23T07:06:24.423Z,4.13
2022-08-23T07:09:11.257Z,4.50
2022-08-23T07:11:59.241Z,4.40
2022-08-23T07:14:46.077Z,4.35
2022-08-23T07:17:32.914Z,4.30
2022-08-23T07:20:19.710Z,3.85
2022-08-23T07:23:06.579Z,4.00
2022-08-23T07:25:53.722Z,4.18
2022-08-23T07:28:41.893Z,4.35
2022-08-23T07:31:32.675Z,3.78
2022-08-23T07:34:20.902Z,4.20
2022-08-23T07:37:11.566Z,4.40
2022-08-23T07:40:02.516Z,5.00
2022-08-23T07:42:49.555Z,4.50
2022-08-23T07:45:37.804Z,4.20
2022-08-23T07:48:50.232Z,5.38
2022-08-23T07:51:34.790Z,3.90
2022-08-23T07:54:22.351Z,4.35
2022-08-23T07:57:09.323Z,4.00
2022-08-23T07:59:56.668Z,3.57
2022-08-23T08:02:43.523Z,3.88
2022-08-23T08:05:33.147Z,3.43
2022-08-23T08:08:19.887Z,3.60
2022-08-23T08:11:07.835Z,4.28
2022-08-23T08:13:55.476Z,3.53
2022-08-23T08:16:45.591Z,3.90
2022-08-23T08:19:32.350Z,3.25
2022-08-23T08:22:19.091Z,3.55
2022-08-23T08:25:06.425Z,3.97
2022-08-23T08:27:53.746Z,4.15
2022-08-23T08:30:40.568Z,3.88
2022-08-23T08:33:30.693Z,3.77
2022-08-23T08:36:44.646Z,4.20
2022-08-23T08:39:33.803Z,3.67
2022-08-23T08:43:11.629Z,3.10
2022-08-23T08:46:13.403Z,3.67
2022-08-23T08:49:02.050Z,3.50
2022-08-23T08:51:58.706Z,3.13
2022-08-23T08:54:48.942Z,3.17
2022-08-23T08:57:41.139Z,3.72
2022-08-23T09:00:32.454Z,3.28
2022-08-23T09:03:21.091Z,3.20
2022-08-23T09:06:28.067Z,3.05
2022-08-23T09:09:55.738Z,3.83
2022-08-23T09:13:03.688Z,3.20
2022-08-23T09:16:17.852Z,3.27
2022-08-23T09:19:05.371Z,3.33
2022-08-23T09:22:13.750Z,4.18
2022-08-23T09:25:00.574Z,3.70
2022-08-23T09:27:47.322Z,3.93
2022-08-23T09:30:49.236Z,2.70
2022-08-23T09:33:46.009Z,3.67
2022-08-23T09:36:36.154Z,4.95
2022-08-23T09:39:32.129Z,4.07
2022-08-23T09:42:47.407Z,3.50
2022-08-23T09:45:40.395Z,3.40
2022-08-23T09:48:43.717Z,3.22
2022-08-23T09:51:41.499Z,2.90
2022-08-23T09:54:33.431Z,2.88
2022-08-23T09:57:25.739Z,2.75
2022-08-23T10:00:47.790Z,2.97
2022-08-23T10:03:34.818Z,2.50
2022-08-23T10:06:34.058Z,2.42
2022-08-23T10:09:27.664Z,2.40
2022-08-23T10:12:14.515Z,3.30
2022-08-23T10:15:02.943Z,3.38
2022-08-23T10:18:15.887Z,3.13
2022-08-23T10:21:21.117Z,2.85
2022-08-23T10:24:34.940Z,3.00
2022-08-23T10:27:55.577Z,2.40
2022-08-23T10:30:42.397Z,2.30
2022-08-23T10:34:11.691Z,2.97
2022-08-23T10:37:07.680Z,2.67
2022-08-23T10:40:07.182Z,3.05
2022-08-23T10:43:14.548Z,3.03
2022-08-23T10:46:02.948Z,2.53
2022-08-23T10:48:54.769Z,3.17
2022-08-23T10:51:44.958Z,4.53
2022-08-23T10:55:16.606Z,3.38
2022-08-23T10:58:08.742Z,2.63
2022-08-23T11:00:57.636Z,3.47
2022-08-23T11:03:52.361Z,2.75
2022-08-23T11:06:45.772Z,2.42
2022-08-23T11:09:46.478Z,3.47
2022-08-23T11:12:58.498Z,2.83
2022-08-23T11:15:55.916Z,3.47
2022-08-23T11:18:48.627Z,4.80
2022-08-23T11:21:39.852Z,1.83
2022-08-23T11:24:33.706Z,2.83
2022-08-23T11:27:36.146Z,2.47
2022-08-23T11:30:32.282Z,2.53
2022-08-23T11:33:26.546Z,1.20
2022-08-23T11:36:13.255Z,1.10
2022-08-23T11:41:54.704Z,0.75
2022-08-23T11:44:48.816Z,0.82
2022-08-23T11:47:44.565Z,0.85
2022-08-23T11:51:17.991Z,2.00
2022-08-23T11:54:24.018Z,0.98
2022-08-23T11:57:23.323Z,1.80
2022-08-23T12:00:44.397Z,1.73
2022-08-23T12:03:56.833Z,1.70
2022-08-23T12:06:53.003Z,1.02
2022-08-23T12:09:43.015Z,1.10
2022-08-23T12:12:37.813Z,1.17
2022-08-23T12:16:07.104Z,2.10
2022-08-23T12:19:07.487Z,1.65
2022-08-23T12:21:57.157Z,1.10
2022-08-23T12:24:53.033Z,1.55
2022-08-23T12:27:45.706Z,2.72
2022-08-23T12:30:42.776Z,1.63
2022-08-23T12:33:36.679Z,1.30
2022-08-23T12:36:33.151Z,1.85
2022-08-23T12:39:22.536Z,1.30
2022-08-23T12:42:13.823Z,0.88
2022-08-23T12:45:08.794Z,2.10
2022-08-23T12:47:59.165Z,0.93
2022-08-23T12:50:53.875Z,1.38
2022-08-23T12:53:45.381Z,2.33
2022-08-23T12:56:33.766Z,1.58
2022-08-23T12:59:36.766Z,2.33
2022-08-23T13:02:30.507Z,1.77
2022-08-23T13:05:30.618Z,1.45
2022-08-23T13:08:34.306Z,1.85
2022-08-23T13:11:24.986Z,1.33
2022-08-23T13:14:33.736Z,1.35
2022-08-23T13:17:26.677Z,1.20
2022-08-23T13:20:23.900Z,1.45
2022-08-23T13:23:10.707Z,1.25
2022-08-23T13:26:17.408Z,1.92
2022-08-23T13:29:08.413Z,3.50
2022-08-23T13:32:04.212Z,3.17
2022-08-23T13:34:56.562Z,2.45
2022-08-23T13:37:46.491Z,1.45
2022-08-23T13:40:50.175Z,1.88
2022-08-23T13:43:48.748Z,3.15
2022-08-23T13:46:44.543Z,3.50
2022-08-23T13:49:36.987Z,2.72
2022-08-23T13:52:56.612Z,2.58
2022-08-23T13:55:31.078Z,2.53
2022-08-23T14:01:19.702Z,1.40
2022-08-23T14:04:07.689Z,1.40
2022-08-23T14:06:54.659Z,2.63
2022-08-23T14:09:42.516Z,1.10
2022-08-23T14:12:31.830Z,3.25
2022-08-23T14:15:19.255Z,2.20
2022-08-23T14:18:06.067Z,1.50
2022-08-23T14:20:52.867Z,2.03
2022-08-23T14:23:39.665Z,1.27
2022-08-23T14:26:26.675Z,1.00
2022-08-23T14:29:15.442Z,1.10
2022-08-23T14:32:03.165Z,1.00
2022-08-23T14:34:50.350Z,1.15
2022-08-23T14:40:55.464Z,1.60
2022-08-23T14:43:42.491Z,1.38
2022-08-23T14:46:29.384Z,1.08
2022-08-23T14:49:18.125Z,1.67
2022-08-23T14:52:05.083Z,2.15
2022-08-23T14:54:51.902Z,2.47
2022-08-23T14:57:39.087Z,1.80
2022-08-23T15:00:26.379Z,2.55
2022-08-23T15:03:26.759Z,3.15
2022-08-23T15:06:14.755Z,2.60
2022-08-23T15:09:01.821Z,1.50
2022-08-23T15:14:57.100Z,4.38
2022-08-23T15:17:52.615Z,1.52
2022-08-23T15:20:39.944Z,1.90
2022-08-23T15:26:18.023Z,3.35
2022-08-23T15:29:05.347Z,2.22
2022-08-23T15:34:40.093Z,1.92
2022-08-23T15:37:34.396Z,2.58
2022-08-23T15:40:21.912Z,1.98
2022-08-23T15:43:09.212Z,2.92
2022-08-23T15:45:56.006Z,2.00
2022-08-23T15:48:50.640Z,2.65
2022-08-23T15:51:37.539Z,2.10
2022-08-23T15:54:24.659Z,1.80
2022-08-23T15:57:17.742Z,1.60
2022-08-23T16:00:07.137Z,2.13
2022-08-23T16:03:18.952Z,2.22
2022-08-23T16:06:02.333Z,2.53
2022-08-23T16:08:52.231Z,2.03
2022-08-23T16:11:39.007Z,2.80
2022-08-23T16:14:26.131Z,1.73
2022-08-23T16:17:14.939Z,1.75
2022-08-23T16:20:02.427Z,2.55
2022-08-23T16:25:36.758Z,3.58
2022-08-23T16:28:23.534Z,1.70
2022-08-23T16:31:11.159Z,2.00
2022-08-23T16:34:01.303Z,2.50
2022-08-23T16:36:53.651Z,1.77
2022-08-23T16:39:44.485Z,2.78
2022-08-23T16:42:34.659Z,5.28
2022-08-23T16:45:25.889Z,1.85
2022-08-23T16:48:14.972Z,1.95
2022-08-23T16:51:02.094Z,2.72
2022-08-23T16:53:57.960Z,2.65
2022-08-23T16:56:49.860Z,1.88
2022-08-23T16:59:40.337Z,3.03
2022-08-23T17:02:29.366Z,2.50
2022-08-23T17:05:18.687Z,3.13
2022-08-23T17:08:05.452Z,2.55
2022-08-23T17:10:52.206Z,3.45
2022-08-23T17:13:39.615Z,2.60
2022-08-23T17:16:26.411Z,2.58
2022-08-23T17:19:14.207Z,3.25
2022-08-23T17:22:00.990Z,2.55
2022-08-23T17:24:47.741Z,2.42
2022-08-23T17:27:45.485Z,2.10
2022-08-23T17:30:33.065Z,2.55
2022-08-23T17:33:19.855Z,2.75
2022-08-23T17:36:07.889Z,2.50
2022-08-23T17:38:56.996Z,1.88
2022-08-23T17:41:45.567Z,2.35
2022-08-23T17:44:32.507Z,1.73
2022-08-23T17:47:19.908Z,2.23
2022-08-23T17:50:08.299Z,2.33
2022-08-23T17:52:55.058Z,2.25
2022-08-23T17:55:42.364Z,3.27
2022-08-23T17:58:29.776Z,2.00
2022-08-23T18:01:16.661Z,3.03
2022-08-23T18:04:05.892Z,2.63
2022-08-23T18:06:52.684Z,2.45
2022-08-23T18:09:43.746Z,2.20
2022-08-23T18:12:35.095Z,3.65
2022-08-23T18:15:21.815Z,2.67
2022-08-23T18:18:08.714Z,2.50
2022-08-23T18:20:55.749Z,2.05
2022-08-23T18:23:42.533Z,2.30
2022-08-23T18:26:47.848Z,2.37
2022-08-23T18:29:36.911Z,1.75
2022-08-23T18:32:23.768Z,2.15
2022-08-23T18:35:11.225Z,1.40
2022-08-23T18:37:58.363Z,1.40
2022-08-23T18:40:46.998Z,1.88
2022-08-23T18:43:37.282Z,1.70
2022-08-23T18:46:28.435Z,1.50
2022-08-23T18:49:18.574Z,1.38
2022-08-23T18:52:06.647Z,1.40
2022-08-23T18:54:53.963Z,1.40
2022-08-23T18:57:40.740Z,1.30
2022-08-23T19:00:27.463Z,1.50
2022-08-23T19:03:14.797Z,1.60
2022-08-23T19:06:01.545Z,1.67
2022-08-23T19:08:48.457Z,1.57
2022-08-23T19:11:36.324Z,1.55
2022-08-23T19:14:23.103Z,1.63
2022-08-23T19:17:09.823Z,1.40
2022-08-23T19:19:56.790Z,1.40
2022-08-23T19:22:43.510Z,1.58
2022-08-23T19:25:31.685Z,1.80
2022-08-23T19:28:19.928Z,1.92
2022-08-23T19:31:06.950Z,1.70
2022-08-23T19:33:53.937Z,1.73
2022-08-23T19:36:46.965Z,1.63
2022-08-23T19:39:35.670Z,2.10
2022-08-23T19:42:22.563Z,2.30
2022-08-23T19:45:09.946Z,2.40
2022-08-23T19:47:59.614Z,2.08
2022-08-23T19:50:47.713Z,2.45
2022-08-23T19:53:35.062Z,2.45
2022-08-23T19:56:21.783Z,2.30
2022-08-23T19:59:15.009Z,2.20
2022-08-23T20:02:03.129Z,2.30
2022-08-23T20:04:51.717Z,2.45
2022-08-23T20:07:38.859Z,1.90
2022-08-23T20:10:25.902Z,2.33
2022-08-23T20:13:12.758Z,2.83
2022-08-23T20:16:01.221Z,2.20
2022-08-23T20:18:48.392Z,2.15
2022-08-23T20:21:35.415Z,2.08
2022-08-23T20:24:32.714Z,2.30
2022-08-23T20:27:30.831Z,2.80
2022-08-23T20:30:18.068Z,2.42
2022-08-23T20:33:05.027Z,2.27
2022-08-23T20:35:51.807Z,2.13
2022-08-23T20:38:39.310Z,2.35
2022-08-23T20:41:28.117Z,2.20
2022-08-23T20:44:15.702Z,2.13
2022-08-23T20:47:03.324Z,2.20
2022-08-23T20:52:37.023Z,2.40
2022-08-23T20:55:24.655Z,3.23
2022-08-23T20:58:11.426Z,3.20
2022-08-23T21:00:58.813Z,2.40
2022-08-23T21:03:45.678Z,2.33
2022-08-23T21:06:38.867Z,2.00
2022-08-23T21:09:29.328Z,2.50
2022-08-23T21:12:16.793Z,2.25
2022-08-23T21:15:07.798Z,2.30
2022-08-23T21:17:57.320Z,2.40
2022-08-23T21:20:44.331Z,2.80
2022-08-23T21:23:31.260Z,2.20
2022-08-23T21:26:18.161Z,2.57
2022-08-23T21:29:07.632Z,2.40
2022-08-23T21:31:54.451Z,2.50
2022-08-23T21:34:41.262Z,2.17
2022-08-23T21:37:28.563Z,2.20
2022-08-23T21:40:15.423Z,2.22
2022-08-23T21:43:02.376Z,2.40
2022-08-23T21:45:49.247Z,2.63
2022-08-23T21:48:36.067Z,2.30
2022-08-23T21:51:22.888Z,2.20
2022-08-23T21:54:11.696Z,2.50
2022-08-23T21:56:58.639Z,2.33
2022-08-23T21:59:45.476Z,2.37
2022-08-23T22:02:32.360Z,2.40
2022-08-23T22:05:19.144Z,2.30
2022-08-23T22:08:05.890Z,2.22
2022-08-23T22:10:58.339Z,2.40
2022-08-23T22:13:45.530Z,3.08
2022-08-23T22:16:32.271Z,2.95
2022-08-23T22:19:19.713Z,2.50
2022-08-23T22:22:06.547Z,2.50
2022-08-23T22:24:54.180Z,2.38
2022-08-23T22:27:40.942Z,2.58
2022-08-23T22:30:27.699Z,2.50
2022-08-23T22:33:14.447Z,2.00
2022-08-23T22:36:04.240Z,2.28
2022-08-23T22:38:51.693Z,2.53
2022-08-23T22:41:38.490Z,3.20
2022-08-23T22:44:25.368Z,2.17
2022-08-23T22:47:12.568Z,2.67
2022-08-23T22:49:59.915Z,2.15
2022-08-23T22:52:46.748Z,2.22
2022-08-23T22:55:33.494Z,2.23
2022-08-23T22:58:20.310Z,2.40
2022-08-23T23:01:13.090Z,2.47
2022-08-23T23:04:01.699Z,3.60
2022-08-23T23:06:49.403Z,2.42
2022-08-23T23:09:36.564Z,2.50
2022-08-23T23:12:23.315Z,2.53
2022-08-23T23:15:10.424Z,3.40
2022-08-23T23:17:57.191Z,2.33
2022-08-23T23:20:44.084Z,2.70
2022-08-23T23:23:31.950Z,2.50
2022-08-23T23:26:18.696Z,2.30
2022-08-23T23:29:05.965Z,2.30
2022-08-23T23:31:53.420Z,2.42
2022-08-23T23:34:40.154Z,2.60
2022-08-23T23:37:26.987Z,2.40
2022-08-23T23:40:14.033Z,3.40
2022-08-23T23:43:01.183Z,2.42
2022-08-23T23:45:47.960Z,3.78
2022-08-23T23:48:34.770Z,2.40
2022-08-23T23:51:26.039Z,2.70
2022-08-23T23:54:14.698Z,2.50
2022-08-23T23:57:02.973Z,2.85
2022-08-23T23:59:49.954Z,2.40
